sensor_id;sensor_type;location;lat;lon;timestamp;temperature;humidity
18773;DHT22;9515;50.810;4.418;2022-07-26T00:01:20;20.40;99.90
18773;DHT22;9515;50.810;4.418;2022-07-26T00:03:47;20.40;99.90
18773;DHT22;9515;50.810;4.418;2022-07-26T00:06:12;20.40;99.90
18773;DHT22;9515;50.810;4.418;2022-07-26T00:08:38;20.50;99.90
18773;DHT22;9515;50.810;4.418;2022-07-26T00:11:04;20.50;99.90
18773;DHT22;9515;50.810;4.418;2022-07-26T00:13:31;20.50;99.90
18773;DHT22;9515;50.810;4.418;2022-07-26T00:15:57;20.50;99.90
18773;DHT22;9515;50.810;4.418;2022-07-26T00:18:23;20.50;99.90
18773;DHT22;9515;50.810;4.418;2022-07-26T00:20:49;20.40;99.90
18773;DHT22;9515;50.810;4.418;2022-07-26T00:23:14;20.40;99.90
18773;DHT22;9515;50.810;4.418;2022-07-26T00:25:40;20.40;99.90
18773;DHT22;9515;50.810;4.418;2022-07-26T00:28:06;20.20;99.90
18773;DHT22;9515;50.810;4.418;2022-07-26T00:30:33;20.30;99.90
18773;DHT22;9515;50.810;4.418;2022-07-26T00:32:58;20.20;99.90
18773;DHT22;9515;50.810;4.418;2022-07-26T00:35:25;20.10;99.90
18773;DHT22;9515;50.810;4.418;2022-07-26T00:37:50;20.30;99.90
18773;DHT22;9515;50.810;4.418;2022-07-26T00:40:17;20.40;99.90
18773;DHT22;9515;50.810;4.418;2022-07-26T00:42:43;20.40;99.90
18773;DHT22;9515;50.810;4.418;2022-07-26T00:45:10;20.50;99.90
18773;DHT22;9515;50.810;4.418;2022-07-26T00:47:36;20.40;99.90
18773;DHT22;9515;50.810;4.418;2022-07-26T00:50:03;20.30;99.90
18773;DHT22;9515;50.810;4.418;2022-07-26T00:52:29;20.20;99.90
18773;DHT22;9515;50.810;4.418;2022-07-26T00:54:55;20.10;99.90
18773;DHT22;9515;50.810;4.418;2022-07-26T00:57:22;20.10;99.90
18773;DHT22;9515;50.810;4.418;2022-07-26T00:59:48;20.00;99.90
18773;DHT22;9515;50.810;4.418;2022-07-26T01:02:14;20.00;99.90
18773;DHT22;9515;50.810;4.418;2022-07-26T01:04:40;20.00;99.90
18773;DHT22;9515;50.810;4.418;2022-07-26T01:07:09;20.20;99.90
18773;DHT22;9515;50.810;4.418;2022-07-26T01:09:35;20.10;99.90
18773;DHT22;9515;50.810;4.418;2022-07-26T01:12:01;20.30;99.90
18773;DHT22;9515;50.810;4.418;2022-07-26T01:14:27;20.20;99.90
18773;DHT22;9515;50.810;4.418;2022-07-26T01:16:53;20.10;99.90
18773;DHT22;9515;50.810;4.418;2022-07-26T01:19:19;20.30;99.90
18773;DHT22;9515;50.810;4.418;2022-07-26T01:21:45;20.50;99.90
18773;DHT22;9515;50.810;4.418;2022-07-26T01:24:10;20.50;99.90
18773;DHT22;9515;50.810;4.418;2022-07-26T01:26:36;20.50;99.90
18773;DHT22;9515;50.810;4.418;2022-07-26T01:29:03;20.60;99.90
18773;DHT22;9515;50.810;4.418;2022-07-26T01:31:29;20.60;99.90
18773;DHT22;9515;50.810;4.418;2022-07-26T01:33:54;20.70;99.90
18773;DHT22;9515;50.810;4.418;2022-07-26T01:36:20;20.50;99.90
18773;DHT22;9515;50.810;4.418;2022-07-26T01:38:46;20.40;99.90
18773;DHT22;9515;50.810;4.418;2022-07-26T01:41:12;20.30;99.90
18773;DHT22;9515;50.810;4.418;2022-07-26T01:43:38;20.30;99.90
18773;DHT22;9515;50.810;4.418;2022-07-26T01:46:05;20.40;99.90
18773;DHT22;9515;50.810;4.418;2022-07-26T01:48:32;20.50;99.90
18773;DHT22;9515;50.810;4.418;2022-07-26T01:50:59;20.50;99.90
18773;DHT22;9515;50.810;4.418;2022-07-26T01:53:24;20.40;99.90
18773;DHT22;9515;50.810;4.418;2022-07-26T01:55:50;20.20;99.90
18773;DHT22;9515;50.810;4.418;2022-07-26T01:58:17;20.30;99.90
18773;DHT22;9515;50.810;4.418;2022-07-26T02:00:42;20.60;99.90
18773;DHT22;9515;50.810;4.418;2022-07-26T02:03:09;20.70;99.90
18773;DHT22;9515;50.810;4.418;2022-07-26T02:05:34;20.70;99.90
18773;DHT22;9515;50.810;4.418;2022-07-26T02:08:00;20.60;99.90
18773;DHT22;9515;50.810;4.418;2022-07-26T02:10:26;20.50;99.90
18773;DHT22;9515;50.810;4.418;2022-07-26T02:13:12;20.60;99.90
18773;DHT22;9515;50.810;4.418;2022-07-26T02:15:38;20.60;99.90
18773;DHT22;9515;50.810;4.418;2022-07-26T02:18:04;20.60;99.90
18773;DHT22;9515;50.810;4.418;2022-07-26T02:20:29;20.50;99.90
18773;DHT22;9515;50.810;4.418;2022-07-26T02:22:59;20.60;99.90
18773;DHT22;9515;50.810;4.418;2022-07-26T02:25:25;20.30;99.90
18773;DHT22;9515;50.810;4.418;2022-07-26T02:27:51;20.40;99.90
18773;DHT22;9515;50.810;4.418;2022-07-26T02:30:17;20.20;99.90
18773;DHT22;9515;50.810;4.418;2022-07-26T02:32:43;20.20;99.90
18773;DHT22;9515;50.810;4.418;2022-07-26T02:35:09;20.20;99.90
18773;DHT22;9515;50.810;4.418;2022-07-26T02:37:35;20.30;99.90
18773;DHT22;9515;50.810;4.418;2022-07-26T02:40:00;20.40;99.90
18773;DHT22;9515;50.810;4.418;2022-07-26T02:42:27;20.20;99.90
18773;DHT22;9515;50.810;4.418;2022-07-26T02:44:53;20.20;99.90
18773;DHT22;9515;50.810;4.418;2022-07-26T02:47:19;20.30;99.90
18773;DHT22;9515;50.810;4.418;2022-07-26T02:49:44;20.30;99.90
18773;DHT22;9515;50.810;4.418;2022-07-26T02:52:10;20.60;99.90
18773;DHT22;9515;50.810;4.418;2022-07-26T02:54:36;20.50;99.90
18773;DHT22;9515;50.810;4.418;2022-07-26T02:57:02;20.60;99.90
18773;DHT22;9515;50.810;4.418;2022-07-26T02:59:28;20.50;99.90
18773;DHT22;9515;50.810;4.418;2022-07-26T03:01:53;20.60;99.90
18773;DHT22;9515;50.810;4.418;2022-07-26T03:04:19;20.40;99.90
18773;DHT22;9515;50.810;4.418;2022-07-26T03:06:45;20.50;99.90
18773;DHT22;9515;50.810;4.418;2022-07-26T03:09:11;20.40;99.90
18773;DHT22;9515;50.810;4.418;2022-07-26T03:11:36;20.50;99.90
18773;DHT22;9515;50.810;4.418;2022-07-26T03:14:02;20.50;99.90
18773;DHT22;9515;50.810;4.418;2022-07-26T03:16:28;20.50;99.90
18773;DHT22;9515;50.810;4.418;2022-07-26T03:18:54;20.60;99.90
18773;DHT22;9515;50.810;4.418;2022-07-26T03:21:19;20.70;99.90
18773;DHT22;9515;50.810;4.418;2022-07-26T03:23:45;20.60;99.90
18773;DHT22;9515;50.810;4.418;2022-07-26T03:26:11;20.70;99.90
18773;DHT22;9515;50.810;4.418;2022-07-26T03:28:36;20.60;99.90
18773;DHT22;9515;50.810;4.418;2022-07-26T03:31:04;20.50;99.90
18773;DHT22;9515;50.810;4.418;2022-07-26T03:33:29;20.40;99.90
18773;DHT22;9515;50.810;4.418;2022-07-26T03:35:55;20.50;99.90
18773;DHT22;9515;50.810;4.418;2022-07-26T03:38:21;20.40;99.90
18773;DHT22;9515;50.810;4.418;2022-07-26T03:40:47;20.40;99.90
18773;DHT22;9515;50.810;4.418;2022-07-26T03:43:13;20.30;99.90
18773;DHT22;9515;50.810;4.418;2022-07-26T03:45:38;20.20;99.90
18773;DHT22;9515;50.810;4.418;2022-07-26T03:48:04;20.30;99.90
18773;DHT22;9515;50.810;4.418;2022-07-26T03:50:30;20.40;99.90
18773;DHT22;9515;50.810;4.418;2022-07-26T03:52:55;20.60;99.90
18773;DHT22;9515;50.810;4.418;2022-07-26T03:55:21;20.40;99.90
18773;DHT22;9515;50.810;4.418;2022-07-26T03:58:05;20.40;99.90
18773;DHT22;9515;50.810;4.418;2022-07-26T04:00:31;20.30;99.90
18773;DHT22;9515;50.810;4.418;2022-07-26T04:02:56;20.40;99.90
18773;DHT22;9515;50.810;4.418;2022-07-26T04:05:22;20.40;99.90
18773;DHT22;9515;50.810;4.418;2022-07-26T04:07:48;20.30;99.90
18773;DHT22;9515;50.810;4.418;2022-07-26T04:10:13;20.30;99.90
18773;DHT22;9515;50.810;4.418;2022-07-26T04:12:40;20.30;99.90
18773;DHT22;9515;50.810;4.418;2022-07-26T04:15:06;20.30;99.90
18773;DHT22;9515;50.810;4.418;2022-07-26T04:17:39;20.10;99.90
18773;DHT22;9515;50.810;4.418;2022-07-26T04:20:06;20.20;99.90
18773;DHT22;9515;50.810;4.418;2022-07-26T04:22:33;20.40;99.90
18773;DHT22;9515;50.810;4.418;2022-07-26T04:24:59;20.40;99.90
18773;DHT22;9515;50.810;4.418;2022-07-26T04:27:25;20.40;99.90
18773;DHT22;9515;50.810;4.418;2022-07-26T04:29:51;20.30;99.90
18773;DHT22;9515;50.810;4.418;2022-07-26T04:32:17;20.40;99.90
18773;DHT22;9515;50.810;4.418;2022-07-26T04:34:42;20.40;99.90
18773;DHT22;9515;50.810;4.418;2022-07-26T04:37:08;20.30;99.90
18773;DHT22;9515;50.810;4.418;2022-07-26T04:39:33;20.40;99.90
18773;DHT22;9515;50.810;4.418;2022-07-26T04:41:59;20.40;99.90
18773;DHT22;9515;50.810;4.418;2022-07-26T04:44:25;20.60;99.90
18773;DHT22;9515;50.810;4.418;2022-07-26T04:46:50;20.70;99.90
18773;DHT22;9515;50.810;4.418;2022-07-26T04:49:16;20.70;99.90
18773;DHT22;9515;50.810;4.418;2022-07-26T04:51:42;20.60;99.90
18773;DHT22;9515;50.810;4.418;2022-07-26T04:54:07;20.50;99.90
18773;DHT22;9515;50.810;4.418;2022-07-26T04:56:33;20.60;99.90
18773;DHT22;9515;50.810;4.418;2022-07-26T04:58:58;20.70;99.90
18773;DHT22;9515;50.810;4.418;2022-07-26T05:01:24;20.50;99.90
18773;DHT22;9515;50.810;4.418;2022-07-26T05:03:50;20.70;99.90
18773;DHT22;9515;50.810;4.418;2022-07-26T05:06:15;20.60;99.90
18773;DHT22;9515;50.810;4.418;2022-07-26T05:08:42;20.50;99.90
18773;DHT22;9515;50.810;4.418;2022-07-26T05:11:08;20.50;99.90
18773;DHT22;9515;50.810;4.418;2022-07-26T05:13:33;20.70;99.90
18773;DHT22;9515;50.810;4.418;2022-07-26T05:15:59;20.90;99.90
18773;DHT22;9515;50.810;4.418;2022-07-26T05:18:25;21.00;99.90
18773;DHT22;9515;50.810;4.418;2022-07-26T05:20:51;21.00;99.90
18773;DHT22;9515;50.810;4.418;2022-07-26T05:23:16;21.00;99.90
18773;DHT22;9515;50.810;4.418;2022-07-26T05:25:42;21.00;99.90
18773;DHT22;9515;50.810;4.418;2022-07-26T05:28:08;21.20;99.90
18773;DHT22;9515;50.810;4.418;2022-07-26T05:30:33;21.30;99.90
18773;DHT22;9515;50.810;4.418;2022-07-26T05:32:59;21.40;99.90
18773;DHT22;9515;50.810;4.418;2022-07-26T05:35:25;21.50;99.90
18773;DHT22;9515;50.810;4.418;2022-07-26T05:37:51;21.80;99.90
18773;DHT22;9515;50.810;4.418;2022-07-26T05:40:16;22.40;99.90
18773;DHT22;9515;50.810;4.418;2022-07-26T05:42:42;22.80;99.90
18773;DHT22;9515;50.810;4.418;2022-07-26T05:45:08;23.10;99.90
18773;DHT22;9515;50.810;4.418;2022-07-26T05:47:34;23.20;99.90
18773;DHT22;9515;50.810;4.418;2022-07-26T05:50:00;22.90;99.90
18773;DHT22;9515;50.810;4.418;2022-07-26T05:52:25;22.90;99.90
18773;DHT22;9515;50.810;4.418;2022-07-26T05:54:51;22.90;99.90
18773;DHT22;9515;50.810;4.418;2022-07-26T05:57:17;22.90;99.90
18773;DHT22;9515;50.810;4.418;2022-07-26T05:59:42;22.90;99.90
18773;DHT22;9515;50.810;4.418;2022-07-26T06:02:08;22.90;99.90
18773;DHT22;9515;50.810;4.418;2022-07-26T06:04:34;22.80;99.90
18773;DHT22;9515;50.810;4.418;2022-07-26T06:07:00;23.40;99.90
18773;DHT22;9515;50.810;4.418;2022-07-26T06:09:26;24.10;99.90
18773;DHT22;9515;50.810;4.418;2022-07-26T06:11:52;24.50;99.90
18773;DHT22;9515;50.810;4.418;2022-07-26T06:14:18;24.60;99.90
18773;DHT22;9515;50.810;4.418;2022-07-26T06:16:45;24.50;99.90
18773;DHT22;9515;50.810;4.418;2022-07-26T06:19:11;24.60;99.90
18773;DHT22;9515;50.810;4.418;2022-07-26T06:21:37;24.70;99.90
18773;DHT22;9515;50.810;4.418;2022-07-26T06:24:03;24.80;99.90
18773;DHT22;9515;50.810;4.418;2022-07-26T06:26:29;24.60;99.90
18773;DHT22;9515;50.810;4.418;2022-07-26T06:28:54;24.40;99.90
18773;DHT22;9515;50.810;4.418;2022-07-26T06:31:20;24.20;99.90
18773;DHT22;9515;50.810;4.418;2022-07-26T06:33:46;23.70;99.90
18773;DHT22;9515;50.810;4.418;2022-07-26T06:36:11;23.50;99.90
18773;DHT22;9515;50.810;4.418;2022-07-26T06:38:37;23.60;99.90
18773;DHT22;9515;50.810;4.418;2022-07-26T06:41:03;23.90;99.90
18773;DHT22;9515;50.810;4.418;2022-07-26T06:43:29;24.00;99.90
18773;DHT22;9515;50.810;4.418;2022-07-26T06:45:54;23.80;99.90
18773;DHT22;9515;50.810;4.418;2022-07-26T06:48:20;23.80;99.90
18773;DHT22;9515;50.810;4.418;2022-07-26T06:50:46;23.90;99.90
18773;DHT22;9515;50.810;4.418;2022-07-26T06:53:11;23.90;99.90
18773;DHT22;9515;50.810;4.418;2022-07-26T06:55:37;23.90;99.90
18773;DHT22;9515;50.810;4.418;2022-07-26T06:58:03;23.60;99.90
18773;DHT22;9515;50.810;4.418;2022-07-26T07:00:28;23.60;99.90
18773;DHT22;9515;50.810;4.418;2022-07-26T07:02:55;23.40;99.90
18773;DHT22;9515;50.810;4.418;2022-07-26T07:05:20;23.30;99.90
18773;DHT22;9515;50.810;4.418;2022-07-26T07:07:46;23.40;99.90
18773;DHT22;9515;50.810;4.418;2022-07-26T07:10:12;23.30;99.90
18773;DHT22;9515;50.810;4.418;2022-07-26T07:12:37;23.30;99.90
18773;DHT22;9515;50.810;4.418;2022-07-26T07:15:04;23.40;99.90
18773;DHT22;9515;50.810;4.418;2022-07-26T07:17:30;23.30;99.90
18773;DHT22;9515;50.810;4.418;2022-07-26T07:19:56;23.00;99.90
18773;DHT22;9515;50.810;4.418;2022-07-26T07:22:21;23.10;99.90
18773;DHT22;9515;50.810;4.418;2022-07-26T07:24:47;23.00;99.90
18773;DHT22;9515;50.810;4.418;2022-07-26T07:27:13;23.10;99.90
18773;DHT22;9515;50.810;4.418;2022-07-26T07:29:39;23.20;99.90
18773;DHT22;9515;50.810;4.418;2022-07-26T07:32:05;23.10;99.90
18773;DHT22;9515;50.810;4.418;2022-07-26T07:34:31;23.30;99.90
18773;DHT22;9515;50.810;4.418;2022-07-26T07:36:57;23.20;99.90
18773;DHT22;9515;50.810;4.418;2022-07-26T07:39:22;23.30;99.90
18773;DHT22;9515;50.810;4.418;2022-07-26T07:41:48;23.20;99.90
18773;DHT22;9515;50.810;4.418;2022-07-26T07:44:14;23.40;99.90
18773;DHT22;9515;50.810;4.418;2022-07-26T07:46:40;23.40;99.90
18773;DHT22;9515;50.810;4.418;2022-07-26T07:49:06;22.90;99.90
18773;DHT22;9515;50.810;4.418;2022-07-26T07:51:31;22.90;99.90
18773;DHT22;9515;50.810;4.418;2022-07-26T07:53:58;22.90;99.90
18773;DHT22;9515;50.810;4.418;2022-07-26T07:56:24;23.00;99.90
18773;DHT22;9515;50.810;4.418;2022-07-26T07:58:50;23.30;99.90
18773;DHT22;9515;50.810;4.418;2022-07-26T08:01:15;23.40;99.90
18773;DHT22;9515;50.810;4.418;2022-07-26T08:03:41;23.60;99.90
18773;DHT22;9515;50.810;4.418;2022-07-26T08:06:08;23.70;99.90
18773;DHT22;9515;50.810;4.418;2022-07-26T08:08:34;23.60;99.90
18773;DHT22;9515;50.810;4.418;2022-07-26T08:11:00;23.40;99.90
18773;DHT22;9515;50.810;4.418;2022-07-26T08:13:26;23.70;99.90
18773;DHT22;9515;50.810;4.418;2022-07-26T08:15:53;23.80;99.90
18773;DHT22;9515;50.810;4.418;2022-07-26T08:18:20;23.80;99.90
18773;DHT22;9515;50.810;4.418;2022-07-26T08:20:46;23.90;99.90
18773;DHT22;9515;50.810;4.418;2022-07-26T08:23:12;23.50;99.90
18773;DHT22;9515;50.810;4.418;2022-07-26T08:25:38;23.50;99.90
18773;DHT22;9515;50.810;4.418;2022-07-26T08:28:04;23.50;99.90
18773;DHT22;9515;50.810;4.418;2022-07-26T08:30:31;23.80;99.90
18773;DHT22;9515;50.810;4.418;2022-07-26T08:32:57;24.00;99.90
18773;DHT22;9515;50.810;4.418;2022-07-26T08:35:22;24.20;99.90
18773;DHT22;9515;50.810;4.418;2022-07-26T08:37:48;24.40;99.90
18773;DHT22;9515;50.810;4.418;2022-07-26T08:40:14;24.40;99.90
18773;DHT22;9515;50.810;4.418;2022-07-26T08:42:39;24.60;99.90
18773;DHT22;9515;50.810;4.418;2022-07-26T08:45:18;24.40;99.90
18773;DHT22;9515;50.810;4.418;2022-07-26T08:47:45;24.20;99.90
18773;DHT22;9515;50.810;4.418;2022-07-26T08:50:10;24.10;99.90
18773;DHT22;9515;50.810;4.418;2022-07-26T08:52:40;23.80;99.90
18773;DHT22;9515;50.810;4.418;2022-07-26T08:55:06;24.00;99.90
18773;DHT22;9515;50.810;4.418;2022-07-26T08:57:31;23.90;99.90
18773;DHT22;9515;50.810;4.418;2022-07-26T09:00:24;23.90;99.90
18773;DHT22;9515;50.810;4.418;2022-07-26T09:02:51;24.20;99.90
18773;DHT22;9515;50.810;4.418;2022-07-26T09:05:18;24.40;99.90
18773;DHT22;9515;50.810;4.418;2022-07-26T09:07:44;24.90;99.90
18773;DHT22;9515;50.810;4.418;2022-07-26T09:10:14;25.30;99.90
18773;DHT22;9515;50.810;4.418;2022-07-26T09:12:40;25.60;99.90
18773;DHT22;9515;50.810;4.418;2022-07-26T09:15:16;26.10;99.90
18773;DHT22;9515;50.810;4.418;2022-07-26T09:17:44;26.80;99.90
18773;DHT22;9515;50.810;4.418;2022-07-26T09:20:13;26.80;99.90
18773;DHT22;9515;50.810;4.418;2022-07-26T09:25:26;27.50;99.90
18773;DHT22;9515;50.810;4.418;2022-07-26T09:27:53;28.00;99.90
18773;DHT22;9515;50.810;4.418;2022-07-26T09:30:19;28.20;99.90
18773;DHT22;9515;50.810;4.418;2022-07-26T09:33:02;28.10;99.90
18773;DHT22;9515;50.810;4.418;2022-07-26T09:35:30;28.30;99.90
18773;DHT22;9515;50.810;4.418;2022-07-26T09:37:56;28.90;99.90
18773;DHT22;9515;50.810;4.418;2022-07-26T09:40:22;29.30;99.90
18773;DHT22;9515;50.810;4.418;2022-07-26T09:43:01;30.00;99.90
18773;DHT22;9515;50.810;4.418;2022-07-26T09:45:29;30.50;99.90
18773;DHT22;9515;50.810;4.418;2022-07-26T09:47:55;30.90;99.90
18773;DHT22;9515;50.810;4.418;2022-07-26T09:50:26;31.00;99.90
18773;DHT22;9515;50.810;4.418;2022-07-26T09:53:08;30.50;99.90
18773;DHT22;9515;50.810;4.418;2022-07-26T09:58:12;31.70;99.90
18773;DHT22;9515;50.810;4.418;2022-07-26T10:00:38;32.10;99.90
18773;DHT22;9515;50.810;4.418;2022-07-26T10:03:04;32.20;99.90
18773;DHT22;9515;50.810;4.418;2022-07-26T10:05:31;32.70;99.90
18773;DHT22;9515;50.810;4.418;2022-07-26T10:07:58;33.00;99.90
18773;DHT22;9515;50.810;4.418;2022-07-26T10:10:30;33.40;99.90
18773;DHT22;9515;50.810;4.418;2022-07-26T10:12:58;33.20;99.90
18773;DHT22;9515;50.810;4.418;2022-07-26T10:15:46;32.70;99.90
18773;DHT22;9515;50.810;4.418;2022-07-26T10:21:25;32.30;99.90
18773;DHT22;9515;50.810;4.418;2022-07-26T10:23:55;32.80;99.90
18773;DHT22;9515;50.810;4.418;2022-07-26T10:31:40;33.70;99.90
18773;DHT22;9515;50.810;4.418;2022-07-26T10:34:07;33.40;99.90
18773;DHT22;9515;50.810;4.418;2022-07-26T10:36:38;33.70;99.90
18773;DHT22;9515;50.810;4.418;2022-07-26T10:39:13;34.90;99.90
18773;DHT22;9515;50.810;4.418;2022-07-26T10:41:46;35.70;99.90
18773;DHT22;9515;50.810;4.418;2022-07-26T10:57:32;35.20;99.90
18773;DHT22;9515;50.810;4.418;2022-07-26T10:59:59;34.50;99.90
18773;DHT22;9515;50.810;4.418;2022-07-26T11:02:28;33.70;99.90
18773;DHT22;9515;50.810;4.418;2022-07-26T11:05:11;33.20;99.90
18773;DHT22;9515;50.810;4.418;2022-07-26T11:07:51;32.20;99.90
18773;DHT22;9515;50.810;4.418;2022-07-26T11:10:25;31.30;99.90
18773;DHT22;9515;50.810;4.418;2022-07-26T11:13:05;30.90;99.90
18773;DHT22;9515;50.810;4.418;2022-07-26T11:15:32;30.40;99.90
18773;DHT22;9515;50.810;4.418;2022-07-26T11:20:30;29.30;99.90
18773;DHT22;9515;50.810;4.418;2022-07-26T11:22:56;28.90;99.90
18773;DHT22;9515;50.810;4.418;2022-07-26T11:25:22;28.80;99.90
18773;DHT22;9515;50.810;4.418;2022-07-26T11:28:02;28.70;99.90
18773;DHT22;9515;50.810;4.418;2022-07-26T11:30:28;28.30;99.90
18773;DHT22;9515;50.810;4.418;2022-07-26T11:32:55;28.40;99.90
18773;DHT22;9515;50.810;4.418;2022-07-26T11:35:24;28.50;99.90
18773;DHT22;9515;50.810;4.418;2022-07-26T11:37:57;28.90;99.90
18773;DHT22;9515;50.810;4.418;2022-07-26T11:40:42;29.10;99.90
18773;DHT22;9515;50.810;4.418;2022-07-26T11:43:08;29.10;99.90
18773;DHT22;9515;50.810;4.418;2022-07-26T11:45:34;29.30;99.90
18773;DHT22;9515;50.810;4.418;2022-07-26T11:47:59;29.50;99.90
18773;DHT22;9515;50.810;4.418;2022-07-26T11:50:25;29.50;99.90
18773;DHT22;9515;50.810;4.418;2022-07-26T11:52:51;29.50;99.90
18773;DHT22;9515;50.810;4.418;2022-07-26T11:55:30;29.40;99.90
18773;DHT22;9515;50.810;4.418;2022-07-26T11:58:02;29.40;99.90
18773;DHT22;9515;50.810;4.418;2022-07-26T12:00:28;29.40;99.90
18773;DHT22;9515;50.810;4.418;2022-07-26T12:02:55;29.50;99.90
18773;DHT22;9515;50.810;4.418;2022-07-26T12:05:22;29.30;99.90
18773;DHT22;9515;50.810;4.418;2022-07-26T12:07:56;29.00;99.90
18773;DHT22;9515;50.810;4.418;2022-07-26T12:10:22;29.10;99.90
18773;DHT22;9515;50.810;4.418;2022-07-26T12:12:48;29.20;99.90
18773;DHT22;9515;50.810;4.418;2022-07-26T12:15:14;29.20;99.90
18773;DHT22;9515;50.810;4.418;2022-07-26T12:17:57;29.30;99.90
18773;DHT22;9515;50.810;4.418;2022-07-26T12:20:23;29.20;99.90
18773;DHT22;9515;50.810;4.418;2022-07-26T12:22:56;29.10;99.90
18773;DHT22;9515;50.810;4.418;2022-07-26T12:25:28;28.90;99.90
18773;DHT22;9515;50.810;4.418;2022-07-26T12:27:54;28.80;99.90
18773;DHT22;9515;50.810;4.418;2022-07-26T12:30:22;28.70;99.90
18773;DHT22;9515;50.810;4.418;2022-07-26T12:32:49;28.60;99.90
18773;DHT22;9515;50.810;4.418;2022-07-26T12:35:30;28.50;99.90
18773;DHT22;9515;50.810;4.418;2022-07-26T12:37:58;28.20;99.90
18773;DHT22;9515;50.810;4.418;2022-07-26T12:40:25;27.90;99.90
18773;DHT22;9515;50.810;4.418;2022-07-26T12:42:59;27.40;99.90
18773;DHT22;9515;50.810;4.418;2022-07-26T12:45:27;27.20;99.90
18773;DHT22;9515;50.810;4.418;2022-07-26T12:47:55;27.30;99.90
18773;DHT22;9515;50.810;4.418;2022-07-26T12:50:23;27.40;99.90
18773;DHT22;9515;50.810;4.418;2022-07-26T12:52:50;27.90;99.90
18773;DHT22;9515;50.810;4.418;2022-07-26T12:55:18;28.60;99.90
18773;DHT22;9515;50.810;4.418;2022-07-26T12:57:46;29.50;99.90
18773;DHT22;9515;50.810;4.418;2022-07-26T13:00:13;29.80;99.90
18773;DHT22;9515;50.810;4.418;2022-07-26T13:02:43;30.20;99.90
18773;DHT22;9515;50.810;4.418;2022-07-26T13:05:09;30.50;99.90
18773;DHT22;9515;50.810;4.418;2022-07-26T13:07:36;31.00;99.90
18773;DHT22;9515;50.810;4.418;2022-07-26T13:10:04;30.80;99.90
18773;DHT22;9515;50.810;4.418;2022-07-26T13:12:30;30.90;99.90
18773;DHT22;9515;50.810;4.418;2022-07-26T13:14:56;30.40;99.90
18773;DHT22;9515;50.810;4.418;2022-07-26T13:17:22;30.30;99.90
18773;DHT22;9515;50.810;4.418;2022-07-26T13:19:47;30.00;99.90
18773;DHT22;9515;50.810;4.418;2022-07-26T13:22:13;29.90;99.90
18773;DHT22;9515;50.810;4.418;2022-07-26T13:24:39;30.10;99.90
18773;DHT22;9515;50.810;4.418;2022-07-26T13:27:06;30.00;99.90
18773;DHT22;9515;50.810;4.418;2022-07-26T13:29:32;29.70;99.90
18773;DHT22;9515;50.810;4.418;2022-07-26T13:31:59;29.30;99.90
18773;DHT22;9515;50.810;4.418;2022-07-26T13:34:26;28.60;99.90
18773;DHT22;9515;50.810;4.418;2022-07-26T13:36:52;28.20;99.90
18773;DHT22;9515;50.810;4.418;2022-07-26T13:39:18;27.90;99.90
18773;DHT22;9515;50.810;4.418;2022-07-26T13:41:44;27.50;99.90
18773;DHT22;9515;50.810;4.418;2022-07-26T13:44:10;27.20;99.90
18773;DHT22;9515;50.810;4.418;2022-07-26T13:46:35;27.10;99.90
18773;DHT22;9515;50.810;4.418;2022-07-26T13:49:03;27.10;99.90
18773;DHT22;9515;50.810;4.418;2022-07-26T13:51:31;27.20;99.90
18773;DHT22;9515;50.810;4.418;2022-07-26T13:54:17;27.40;99.90
18773;DHT22;9515;50.810;4.418;2022-07-26T13:56:43;27.60;99.90
18773;DHT22;9515;50.810;4.418;2022-07-26T13:59:10;27.70;99.90
18773;DHT22;9515;50.810;4.418;2022-07-26T14:01:36;27.70;99.90
18773;DHT22;9515;50.810;4.418;2022-07-26T14:04:03;27.70;99.90
18773;DHT22;9515;50.810;4.418;2022-07-26T14:06:29;27.90;99.90
18773;DHT22;9515;50.810;4.418;2022-07-26T14:08:55;28.30;99.90
18773;DHT22;9515;50.810;4.418;2022-07-26T14:11:21;28.00;99.90
18773;DHT22;9515;50.810;4.418;2022-07-26T14:13:47;27.90;99.90
18773;DHT22;9515;50.810;4.418;2022-07-26T14:16:12;27.70;99.90
18773;DHT22;9515;50.810;4.418;2022-07-26T14:18:38;27.60;99.90
18773;DHT22;9515;50.810;4.418;2022-07-26T14:21:04;27.90;99.90
18773;DHT22;9515;50.810;4.418;2022-07-26T14:23:30;28.10;99.90
18773;DHT22;9515;50.810;4.418;2022-07-26T14:25:55;28.00;99.90
18773;DHT22;9515;50.810;4.418;2022-07-26T14:28:21;28.10;99.90
18773;DHT22;9515;50.810;4.418;2022-07-26T14:30:47;27.80;99.90
18773;DHT22;9515;50.810;4.418;2022-07-26T14:33:13;27.50;99.90
18773;DHT22;9515;50.810;4.418;2022-07-26T14:35:38;27.60;99.90
18773;DHT22;9515;50.810;4.418;2022-07-26T14:38:06;27.60;99.90
18773;DHT22;9515;50.810;4.418;2022-07-26T14:40:32;27.40;99.90
18773;DHT22;9515;50.810;4.418;2022-07-26T14:42:58;27.20;99.90
18773;DHT22;9515;50.810;4.418;2022-07-26T14:45:24;26.80;99.90
18773;DHT22;9515;50.810;4.418;2022-07-26T14:47:49;26.70;99.90
18773;DHT22;9515;50.810;4.418;2022-07-26T14:50:15;26.60;99.90
18773;DHT22;9515;50.810;4.418;2022-07-26T14:52:46;26.60;99.90
18773;DHT22;9515;50.810;4.418;2022-07-26T14:55:13;26.80;99.90
18773;DHT22;9515;50.810;4.418;2022-07-26T14:57:39;27.00;99.90
18773;DHT22;9515;50.810;4.418;2022-07-26T15:00:07;27.10;99.90
18773;DHT22;9515;50.810;4.418;2022-07-26T15:02:34;27.20;99.90
18773;DHT22;9515;50.810;4.418;2022-07-26T15:04:59;27.20;99.90
18773;DHT22;9515;50.810;4.418;2022-07-26T15:07:25;27.10;99.90
18773;DHT22;9515;50.810;4.418;2022-07-26T15:09:51;27.20;99.90
18773;DHT22;9515;50.810;4.418;2022-07-26T15:12:17;27.30;99.90
18773;DHT22;9515;50.810;4.418;2022-07-26T15:14:42;27.40;99.90
18773;DHT22;9515;50.810;4.418;2022-07-26T15:17:11;27.40;99.90
18773;DHT22;9515;50.810;4.418;2022-07-26T15:19:38;27.20;99.90
18773;DHT22;9515;50.810;4.418;2022-07-26T15:22:04;27.30;99.90
18773;DHT22;9515;50.810;4.418;2022-07-26T15:24:29;27.60;99.90
18773;DHT22;9515;50.810;4.418;2022-07-26T15:26:55;27.40;99.90
18773;DHT22;9515;50.810;4.418;2022-07-26T15:29:21;27.30;99.90
18773;DHT22;9515;50.810;4.418;2022-07-26T15:31:47;27.00;99.90
18773;DHT22;9515;50.810;4.418;2022-07-26T15:34:14;26.80;99.90
18773;DHT22;9515;50.810;4.418;2022-07-26T15:36:40;26.70;99.90
18773;DHT22;9515;50.810;4.418;2022-07-26T15:39:05;26.40;99.90
18773;DHT22;9515;50.810;4.418;2022-07-26T15:41:32;26.40;99.90
18773;DHT22;9515;50.810;4.418;2022-07-26T15:43:58;26.40;99.90
18773;DHT22;9515;50.810;4.418;2022-07-26T15:46:24;26.10;99.90
18773;DHT22;9515;50.810;4.418;2022-07-26T15:48:49;26.20;99.90
18773;DHT22;9515;50.810;4.418;2022-07-26T15:51:15;26.20;99.90
18773;DHT22;9515;50.810;4.418;2022-07-26T15:53:42;26.20;99.90
18773;DHT22;9515;50.810;4.418;2022-07-26T15:56:09;26.30;99.90
18773;DHT22;9515;50.810;4.418;2022-07-26T15:58:34;26.30;99.90
18773;DHT22;9515;50.810;4.418;2022-07-26T16:01:00;26.20;99.90
18773;DHT22;9515;50.810;4.418;2022-07-26T16:03:26;26.30;99.90
18773;DHT22;9515;50.810;4.418;2022-07-26T16:05:52;26.10;99.90
18773;DHT22;9515;50.810;4.418;2022-07-26T16:08:18;25.90;99.90
18773;DHT22;9515;50.810;4.418;2022-07-26T16:10:44;25.60;99.90
18773;DHT22;9515;50.810;4.418;2022-07-26T16:13:09;25.60;99.90